sensor_id;sensor_type;location;lat;lon;timestamp;pressure;altitude;pressure_sealevel;temperature;humidity
43878;BME280;29815;48.184;11.268;2022-09-09T00:00:48;95383.16;;;11.77;100.00
43878;BME280;29815;48.184;11.268;2022-09-09T00:03:26;95371.56;;;11.77;100.00
43878;BME280;29815;48.184;11.268;2022-09-09T00:06:05;95372.38;;;11.77;100.00
43878;BME280;29815;48.184;11.268;2022-09-09T00:08:44;95381.00;;;11.79;100.00
43878;BME280;29815;48.184;11.268;2022-09-09T00:11:27;95368.84;;;11.82;100.00
43878;BME280;29815;48.184;11.268;2022-09-09T00:14:03;95373.69;;;11.85;100.00
43878;BME280;29815;48.184;11.268;2022-09-09T00:16:43;95369.38;;;11.84;100.00
43878;BME280;29815;48.184;11.268;2022-09-09T00:19:22;95379.34;;;11.83;100.00
43878;BME280;29815;48.184;11.268;2022-09-09T00:22:13;95366.94;;;11.82;100.00
43878;BME280;29815;48.184;11.268;2022-09-09T00:24:46;95372.63;;;11.81;100.00
43878;BME280;29815;48.184;11.268;2022-09-09T00:27:29;95365.09;;;11.78;100.00
43878;BME280;29815;48.184;11.268;2022-09-09T00:30:15;95372.94;;;11.74;100.00
43878;BME280;29815;48.184;11.268;2022-09-09T00:32:49;95364.88;;;11.69;100.00
43878;BME280;29815;48.184;11.268;2022-09-09T00:35:25;95359.25;;;11.66;100.00
43878;BME280;29815;48.184;11.268;2022-09-09T00:38:03;95363.59;;;11.62;100.00
43878;BME280;29815;48.184;11.268;2022-09-09T00:40:46;95373.31;;;11.58;100.00
43878;BME280;29815;48.184;11.268;2022-09-09T00:43:27;95372.50;;;11.57;100.00
43878;BME280;29815;48.184;11.268;2022-09-09T00:46:47;95375.75;;;11.54;100.00
43878;BME280;29815;48.184;11.268;2022-09-09T00:49:35;95366.88;;;11.53;100.00
43878;BME280;29815;48.184;11.268;2022-09-09T00:52:26;95369.56;;;11.53;100.00
43878;BME280;29815;48.184;11.268;2022-09-09T00:55:10;95360.38;;;11.54;100.00
43878;BME280;29815;48.184;11.268;2022-09-09T00:57:51;95360.91;;;11.57;100.00
43878;BME280;29815;48.184;11.268;2022-09-09T01:00:24;95364.41;;;11.57;100.00
43878;BME280;29815;48.184;11.268;2022-09-09T01:03:10;95364.13;;;11.59;100.00
43878;BME280;29815;48.184;11.268;2022-09-09T01:05:59;95366.84;;;11.59;100.00
43878;BME280;29815;48.184;11.268;2022-09-09T01:08:59;95371.41;;;11.58;100.00
43878;BME280;29815;48.184;11.268;2022-09-09T01:11:43;95369.00;;;11.57;100.00
43878;BME280;29815;48.184;11.268;2022-09-09T01:14:35;95361.72;;;11.57;100.00
43878;BME280;29815;48.184;11.268;2022-09-09T01:17:15;95365.22;;;11.58;100.00
43878;BME280;29815;48.184;11.268;2022-09-09T01:20:08;95363.63;;;11.57;100.00
43878;BME280;29815;48.184;11.268;2022-09-09T01:23:04;95366.03;;;11.58;100.00
43878;BME280;29815;48.184;11.268;2022-09-09T01:26:25;95369.53;;;11.59;100.00
43878;BME280;29815;48.184;11.268;2022-09-09T01:28:59;95366.56;;;11.60;100.00
43878;BME280;29815;48.184;11.268;2022-09-09T01:31:38;95361.44;;;11.59;100.00
43878;BME280;29815;48.184;11.268;2022-09-09T01:34:11;95363.59;;;11.62;100.00
43878;BME280;29815;48.184;11.268;2022-09-09T01:36:45;95372.19;;;11.64;100.00
43878;BME280;29815;48.184;11.268;2022-09-09T01:39:19;95366.00;;;11.63;100.00
43878;BME280;29815;48.184;11.268;2022-09-09T01:41:58;95371.13;;;11.65;100.00
43878;BME280;29815;48.184;11.268;2022-09-09T01:44:30;95370.31;;;11.64;100.00
43878;BME280;29815;48.184;11.268;2022-09-09T01:47:01;95359.00;;;11.62;100.00
43878;BME280;29815;48.184;11.268;2022-09-09T01:49:31;95358.47;;;11.60;100.00
43878;BME280;29815;48.184;11.268;2022-09-09T01:52:08;95368.16;;;11.61;100.00
43878;BME280;29815;48.184;11.268;2022-09-09T01:54:39;95369.53;;;11.59;100.00
43878;BME280;29815;48.184;11.268;2022-09-09T01:57:21;95359.03;;;11.57;100.00
43878;BME280;29815;48.184;11.268;2022-09-09T02:00:03;95363.91;;;11.55;100.00
43878;BME280;29815;48.184;11.268;2022-09-09T02:02:51;95356.63;;;11.56;100.00
43878;BME280;29815;48.184;11.268;2022-09-09T02:05:37;95344.22;;;11.54;100.00
43878;BME280;29815;48.184;11.268;2022-09-09T02:08:22;95333.44;;;11.54;100.00
43878;BME280;29815;48.184;11.268;2022-09-09T02:11:05;95332.59;;;11.59;100.00
43878;BME280;29815;48.184;11.268;2022-09-09T02:13:45;95336.63;;;11.62;100.00
43878;BME280;29815;48.184;11.268;2022-09-09T02:16:22;95347.41;;;11.62;100.00
43878;BME280;29815;48.184;11.268;2022-09-09T02:19:01;95345.81;;;11.61;100.00
43878;BME280;29815;48.184;11.268;2022-09-09T02:21:57;95340.69;;;11.59;100.00
43878;BME280;29815;48.184;11.268;2022-09-09T02:24:31;95342.84;;;11.57;100.00
43878;BME280;29815;48.184;11.268;2022-09-09T02:27:13;95343.94;;;11.56;100.00
43878;BME280;29815;48.184;11.268;2022-09-09T02:29:46;95342.09;;;11.51;100.00
43878;BME280;29815;48.184;11.268;2022-09-09T02:32:20;95345.38;;;11.48;100.00
43878;BME280;29815;48.184;11.268;2022-09-09T02:34:56;95345.66;;;11.47;100.00
43878;BME280;29815;48.184;11.268;2022-09-09T02:37:34;95343.50;;;11.44;100.00
43878;BME280;29815;48.184;11.268;2022-09-09T02:40:10;95342.72;;;11.38;100.00
43878;BME280;29815;48.184;11.268;2022-09-09T02:42:46;95335.19;;;11.35;100.00
43878;BME280;29815;48.184;11.268;2022-09-09T02:45:23;95338.72;;;11.31;100.00
43878;BME280;29815;48.184;11.268;2022-09-09T02:48:00;95333.63;;;11.29;100.00
43878;BME280;29815;48.184;11.268;2022-09-09T02:50:34;95336.59;;;11.28;100.00
43878;BME280;29815;48.184;11.268;2022-09-09T02:53:15;95341.16;;;11.27;100.00
43878;BME280;29815;48.184;11.268;2022-09-09T02:55:49;95333.38;;;11.26;100.00
43878;BME280;29815;48.184;11.268;2022-09-09T02:58:25;95332.03;;;11.23;100.00
43878;BME280;29815;48.184;11.268;2022-09-09T03:01:04;95328.53;;;11.23;100.00
43878;BME280;29815;48.184;11.268;2022-09-09T03:03:34;95328.03;;;11.21;100.00
43878;BME280;29815;48.184;11.268;2022-09-09T03:06:08;95337.19;;;11.19;100.00
43878;BME280;29815;48.184;11.268;2022-09-09T03:08:38;95329.41;;;11.18;100.00
43878;BME280;29815;48.184;11.268;2022-09-09T03:11:16;95328.88;;;11.16;100.00
43878;BME280;29815;48.184;11.268;2022-09-09T03:13:46;95327.53;;;11.13;100.00
43878;BME280;29815;48.184;11.268;2022-09-09T03:16:18;95331.03;;;11.14;100.00
43878;BME280;29815;48.184;11.268;2022-09-09T03:18:50;95330.78;;;11.10;100.00
43878;BME280;29815;48.184;11.268;2022-09-09T03:21:21;95325.38;;;11.10;100.00
43878;BME280;29815;48.184;11.268;2022-09-09T03:23:51;95327.81;;;11.12;100.00
43878;BME280;29815;48.184;11.268;2022-09-09T03:26:20;95329.16;;;11.14;100.00
43878;BME280;29815;48.184;11.268;2022-09-09T03:28:50;95333.72;;;11.14;100.00
43878;BME280;29815;48.184;11.268;2022-09-09T03:31:25;95328.03;;;11.21;100.00
43878;BME280;29815;48.184;11.268;2022-09-09T03:33:59;95325.84;;;11.23;100.00
43878;BME280;29815;48.184;11.268;2022-09-09T03:36:32;95321.50;;;11.27;100.00
43878;BME280;29815;48.184;11.268;2022-09-09T03:39:03;95333.91;;;11.28;100.00
43878;BME280;29815;48.184;11.268;2022-09-09T03:41:32;95332.53;;;11.30;100.00
43878;BME280;29815;48.184;11.268;2022-09-09T03:44:03;95334.41;;;11.35;100.00
43878;BME280;29815;48.184;11.268;2022-09-09T03:46:39;95327.63;;;11.42;100.00
43878;BME280;29815;48.184;11.268;2022-09-09T03:49:09;95328.66;;;11.46;100.00
43878;BME280;29815;48.184;11.268;2022-09-09T03:51:39;95331.88;;;11.48;100.00
43878;BME280;29815;48.184;11.268;2022-09-09T03:54:10;95318.91;;;11.50;100.00
43878;BME280;29815;48.184;11.268;2022-09-09T03:56:40;95323.50;;;11.50;100.00
43878;BME280;29815;48.184;11.268;2022-09-09T03:59:12;95323.81;;;11.48;100.00
43878;BME280;29815;48.184;11.268;2022-09-09T04:01:44;95314.09;;;11.47;100.00
43878;BME280;29815;48.184;11.268;2022-09-09T04:04:15;95313.31;;;11.47;100.00
43878;BME280;29815;48.184;11.268;2022-09-09T04:06:44;95316.56;;;11.44;100.00
43878;BME280;29815;48.184;11.268;2022-09-09T04:09:14;95317.38;;;11.44;100.00
43878;BME280;29815;48.184;11.268;2022-09-09T04:11:43;95309.56;;;11.43;100.00
43878;BME280;29815;48.184;11.268;2022-09-09T04:14:15;95309.22;;;11.49;100.00
43878;BME280;29815;48.184;11.268;2022-09-09T04:16:46;95318.06;;;11.55;100.00
43878;BME280;29815;48.184;11.268;2022-09-09T04:19:16;95314.53;;;11.60;100.00
43878;BME280;29815;48.184;11.268;2022-09-09T04:21:46;95317.75;;;11.62;100.00
43878;BME280;29815;48.184;11.268;2022-09-09T04:24:21;95312.06;;;11.68;100.00
43878;BME280;29815;48.184;11.268;2022-09-09T04:26:51;95309.56;;;11.77;100.00
43878;BME280;29815;48.184;11.268;2022-09-09T04:29:21;95311.94;;;11.83;100.00
43878;BME280;29815;48.184;11.268;2022-09-09T04:31:52;95317.25;;;11.94;100.00
43878;BME280;29815;48.184;11.268;2022-09-09T04:34:22;95311.25;;;12.02;100.00
43878;BME280;29815;48.184;11.268;2022-09-09T04:36:54;95307.34;;;12.13;100.00
43878;BME280;29815;48.184;11.268;2022-09-09T04:39:24;95304.84;;;12.22;100.00
43878;BME280;29815;48.184;11.268;2022-09-09T04:41:54;95303.72;;;12.28;100.00
43878;BME280;29815;48.184;11.268;2022-09-09T04:44:23;95305.22;;;12.34;100.00
43878;BME280;29815;48.184;11.268;2022-09-09T04:46:55;95297.59;;;12.41;100.00
43878;BME280;29815;48.184;11.268;2022-09-09T04:49:25;95297.28;;;12.47;100.00
43878;BME280;29815;48.184;11.268;2022-09-09T04:51:55;95302.63;;;12.52;100.00
43878;BME280;29815;48.184;11.268;2022-09-09T04:54:25;95304.94;;;12.59;100.00
43878;BME280;29815;48.184;11.268;2022-09-09T04:56:56;95298.97;;;12.62;100.00
43878;BME280;29815;48.184;11.268;2022-09-09T04:59:26;95298.41;;;12.65;100.00
43878;BME280;29815;48.184;11.268;2022-09-09T05:02:00;95305.13;;;12.68;100.00
43878;BME280;29815;48.184;11.268;2022-09-09T05:04:31;95304.53;;;12.71;100.00
43878;BME280;29815;48.184;11.268;2022-09-09T05:07:01;95303.75;;;12.70;100.00
43878;BME280;29815;48.184;11.268;2022-09-09T05:09:30;95303.16;;;12.73;100.00
43878;BME280;29815;48.184;11.268;2022-09-09T05:12:01;95298.78;;;12.77;100.00
43878;BME280;29815;48.184;11.268;2022-09-09T05:14:35;95299.31;;;12.79;100.00
43878;BME280;29815;48.184;11.268;2022-09-09T05:17:07;95305.47;;;12.85;100.00
43878;BME280;29815;48.184;11.268;2022-09-09T05:19:38;95304.28;;;12.91;100.00
43878;BME280;29815;48.184;11.268;2022-09-09T05:22:08;95300.72;;;12.96;100.00
43878;BME280;29815;48.184;11.268;2022-09-09T05:24:43;95306.84;;;13.01;100.00
43878;BME280;29815;48.184;11.268;2022-09-09T05:27:13;95313.41;;;13.14;100.00
43878;BME280;29815;48.184;11.268;2022-09-09T05:29:43;95312.56;;;13.18;100.00
43878;BME280;29815;48.184;11.268;2022-09-09T05:32:17;95315.78;;;13.20;100.00
43878;BME280;29815;48.184;11.268;2022-09-09T05:34:49;95321.72;;;13.23;100.00
43878;BME280;29815;48.184;11.268;2022-09-09T05:37:19;95314.94;;;13.25;100.00
43878;BME280;29815;48.184;11.268;2022-09-09T05:39:49;95313.53;;;13.28;100.00
43878;BME280;29815;48.184;11.268;2022-09-09T05:42:19;95309.44;;;13.30;100.00
43878;BME280;29815;48.184;11.268;2022-09-09T05:44:49;95306.47;;;13.32;100.00
43878;BME280;29815;48.184;11.268;2022-09-09T05:47:23;95312.09;;;13.35;100.00
43878;BME280;29815;48.184;11.268;2022-09-09T05:49:56;95320.41;;;13.39;100.00
43878;BME280;29815;48.184;11.268;2022-09-09T05:52:25;95321.41;;;13.43;100.00
43878;BME280;29815;48.184;11.268;2022-09-09T05:54:56;95324.63;;;13.45;100.00
43878;BME280;29815;48.184;11.268;2022-09-09T05:57:27;95316.75;;;13.48;100.00
43878;BME280;29815;48.184;11.268;2022-09-09T05:59:56;95318.84;;;13.51;100.00
43878;BME280;29815;48.184;11.268;2022-09-09T06:02:27;95320.69;;;13.56;100.00
43878;BME280;29815;48.184;11.268;2022-09-09T06:04:57;95323.63;;;13.60;100.00
43878;BME280;29815;48.184;11.268;2022-09-09T06:07:28;95322.72;;;13.64;100.00
43878;BME280;29815;48.184;11.268;2022-09-09T06:09:58;95327.75;;;13.71;100.00
43878;BME280;29815;48.184;11.268;2022-09-09T06:12:28;95326.06;;;13.75;100.00
43878;BME280;29815;48.184;11.268;2022-09-09T06:14:57;95334.91;;;13.80;100.00
43878;BME280;29815;48.184;11.268;2022-09-09T06:17:28;95328.84;;;13.88;100.00
43878;BME280;29815;48.184;11.268;2022-09-09T06:19:58;95325.25;;;13.93;100.00
43878;BME280;29815;48.184;11.268;2022-09-09T06:22:27;95333.69;;;14.05;100.00
43878;BME280;29815;48.184;11.268;2022-09-09T06:24:57;95326.13;;;14.21;100.00
43878;BME280;29815;48.184;11.268;2022-09-09T06:27:28;95325.00;;;14.22;100.00
43878;BME280;29815;48.184;11.268;2022-09-09T06:29:58;95340.94;;;14.23;100.00
43878;BME280;29815;48.184;11.268;2022-09-09T06:32:31;95333.81;;;14.28;100.00
43878;BME280;29815;48.184;11.268;2022-09-09T06:35:06;95339.75;;;14.30;100.00
43878;BME280;29815;48.184;11.268;2022-09-09T06:37:36;95340.25;;;14.32;100.00
43878;BME280;29815;48.184;11.268;2022-09-09T06:40:08;95354.22;;;14.39;100.00
43878;BME280;29815;48.184;11.268;2022-09-09T06:42:38;95379.72;;;14.51;100.00
43878;BME280;29815;48.184;11.268;2022-09-09T06:45:24;95385.84;;;14.57;100.00
43878;BME280;29815;48.184;11.268;2022-09-09T06:47:58;95393.38;;;14.60;100.00
43878;BME280;29815;48.184;11.268;2022-09-09T06:50:27;95390.66;;;14.60;100.00
43878;BME280;29815;48.184;11.268;2022-09-09T06:52:57;95383.56;;;14.64;100.00
43878;BME280;29815;48.184;11.268;2022-09-09T06:55:26;95385.56;;;14.59;100.00
43878;BME280;29815;48.184;11.268;2022-09-09T06:57:56;95380.63;;;14.61;100.00
43878;BME280;29815;48.184;11.268;2022-09-09T07:00:27;95398.78;;;14.60;100.00
43878;BME280;29815;48.184;11.268;2022-09-09T07:02:58;95397.91;;;14.65;100.00
43878;BME280;29815;48.184;11.268;2022-09-09T07:05:27;95398.13;;;14.68;100.00
43878;BME280;29815;48.184;11.268;2022-09-09T07:07:57;95393.72;;;14.72;100.00
43878;BME280;29815;48.184;11.268;2022-09-09T07:10:27;95391.09;;;14.81;100.00
43878;BME280;29815;48.184;11.268;2022-09-09T07:12:57;95395.72;;;14.94;100.00
43878;BME280;29815;48.184;11.268;2022-09-09T07:15:28;95395.03;;;15.02;100.00
43878;BME280;29815;48.184;11.268;2022-09-09T07:18:02;95398.25;;;15.04;100.00
43878;BME280;29815;48.184;11.268;2022-09-09T07:20:32;95393.81;;;15.08;100.00
43878;BME280;29815;48.184;11.268;2022-09-09T07:23:02;95392.31;;;15.16;100.00
43878;BME280;29815;48.184;11.268;2022-09-09T07:25:31;95399.53;;;15.20;100.00
43878;BME280;29815;48.184;11.268;2022-09-09T07:28:01;95396.72;;;15.26;100.00
43878;BME280;29815;48.184;11.268;2022-09-09T07:30:31;95400.59;;;15.33;100.00
43878;BME280;29815;48.184;11.268;2022-09-09T07:33:02;95397.50;;;15.40;100.00
43878;BME280;29815;48.184;11.268;2022-09-09T07:35:32;95394.06;;;15.48;100.00
43878;BME280;29815;48.184;11.268;2022-09-09T07:38:03;95399.41;;;15.53;100.00
43878;BME280;29815;48.184;11.268;2022-09-09T07:40:35;95396.59;;;15.58;100.00
43878;BME280;29815;48.184;11.268;2022-09-09T07:43:05;95406.22;;;15.64;100.00
43878;BME280;29815;48.184;11.268;2022-09-09T07:45:35;95416.25;;;15.64;100.00
43878;BME280;29815;48.184;11.268;2022-09-09T07:48:06;95422.50;;;15.64;100.00
43878;BME280;29815;48.184;11.268;2022-09-09T07:50:35;95424.69;;;15.62;100.00
43878;BME280;29815;48.184;11.268;2022-09-09T07:53:05;95430.75;;;15.59;100.00
43878;BME280;29815;48.184;11.268;2022-09-09T07:55:35;95431.44;;;15.51;100.00
43878;BME280;29815;48.184;11.268;2022-09-09T07:58:05;95440.47;;;15.46;100.00
43878;BME280;29815;48.184;11.268;2022-09-09T08:00:34;95431.94;;;15.39;100.00
43878;BME280;29815;48.184;11.268;2022-09-09T08:03:05;95436.88;;;15.37;100.00
43878;BME280;29815;48.184;11.268;2022-09-09T08:05:35;95432.84;;;15.35;100.00
43878;BME280;29815;48.184;11.268;2022-09-09T08:08:07;95430.94;;;15.35;100.00
43878;BME280;29815;48.184;11.268;2022-09-09T08:10:37;95430.34;;;15.38;100.00
43878;BME280;29815;48.184;11.268;2022-09-09T08:13:06;95431.03;;;15.44;100.00
43878;BME280;29815;48.184;11.268;2022-09-09T08:15:46;95430.34;;;15.52;100.00
43878;BME280;29815;48.184;11.268;2022-09-09T08:18:18;95429.97;;;15.59;100.00
43878;BME280;29815;48.184;11.268;2022-09-09T08:20:48;95424.59;;;15.67;100.00
43878;BME280;29815;48.184;11.268;2022-09-09T08:23:17;95433.63;;;15.76;100.00
43878;BME280;29815;48.184;11.268;2022-09-09T08:25:47;95436.91;;;15.87;100.00
43878;BME280;29815;48.184;11.268;2022-09-09T08:28:18;95444.81;;;15.97;100.00
43878;BME280;29815;48.184;11.268;2022-09-09T08:30:47;95432.44;;;16.05;100.00
43878;BME280;29815;48.184;11.268;2022-09-09T08:33:18;95446.25;;;16.17;100.00
43878;BME280;29815;48.184;11.268;2022-09-09T08:35:50;95440.91;;;16.25;100.00
43878;BME280;29815;48.184;11.268;2022-09-09T08:38:20;95451.34;;;16.32;100.00
43878;BME280;29815;48.184;11.268;2022-09-09T08:40:52;95448.22;;;16.39;100.00
43878;BME280;29815;48.184;11.268;2022-09-09T08:43:29;95448.38;;;16.42;100.00
43878;BME280;29815;48.184;11.268;2022-09-09T08:46:07;95449.22;;;16.51;100.00
43878;BME280;29815;48.184;11.268;2022-09-09T08:48:52;95442.88;;;16.56;100.00
43878;BME280;29815;48.184;11.268;2022-09-09T08:51:27;95441.38;;;16.64;100.00
43878;BME280;29815;48.184;11.268;2022-09-09T08:54:02;95443.31;;;16.72;100.00
43878;BME280;29815;48.184;11.268;2022-09-09T08:56:33;95437.25;;;16.75;100.00
43878;BME280;29815;48.184;11.268;2022-09-09T08:59:04;95436.31;;;16.79;100.00
43878;BME280;29815;48.184;11.268;2022-09-09T09:01:49;95438.13;;;16.84;100.00
43878;BME280;29815;48.184;11.268;2022-09-09T09:05:00;95443.56;;;16.84;100.00
43878;BME280;29815;48.184;11.268;2022-09-09T09:07:50;95438.44;;;16.82;100.00
43878;BME280;29815;48.184;11.268;2022-09-09T09:10:45;95442.06;;;16.78;100.00
43878;BME280;29815;48.184;11.268;2022-09-09T09:13:31;95438.84;;;16.67;100.00
43878;BME280;29815;48.184;11.268;2022-09-09T09:16:20;95445.16;;;16.63;100.00
43878;BME280;29815;48.184;11.268;2022-09-09T09:18:54;95443.69;;;16.56;100.00
43878;BME280;29815;48.184;11.268;2022-09-09T09:21:36;95444.09;;;16.50;100.00
43878;BME280;29815;48.184;11.268;2022-09-09T09:24:18;95453.69;;;16.47;100.00
43878;BME280;29815;48.184;11.268;2022-09-09T09:26:50;95449.66;;;16.45;100.00
43878;BME280;29815;48.184;11.268;2022-09-09T09:29:23;95438.94;;;16.40;100.00
43878;BME280;29815;48.184;11.268;2022-09-09T09:31:56;95441.97;;;16.38;100.00
43878;BME280;29815;48.184;11.268;2022-09-09T09:34:29;95440.38;;;16.37;100.00
43878;BME280;29815;48.184;11.268;2022-09-09T09:37:15;95440.06;;;16.39;100.00
43878;BME280;29815;48.184;11.268;2022-09-09T09:39:47;95438.50;;;16.46;100.00
43878;BME280;29815;48.184;11.268;2022-09-09T09:42:32;95443.50;;;16.53;100.00
43878;BME280;29815;48.184;11.268;2022-09-09T09:45:13;95446.88;;;16.58;100.00
43878;BME280;29815;48.184;11.268;2022-09-09T09:47:46;95445.06;;;16.68;100.00
43878;BME280;29815;48.184;11.268;2022-09-09T09:50:46;95445.97;;;16.63;100.00
43878;BME280;29815;48.184;11.268;2022-09-09T09:53:22;95455.75;;;16.64;100.00
43878;BME280;29815;48.184;11.268;2022-09-09T09:56:00;95464.75;;;16.73;100.00
43878;BME280;29815;48.184;11.268;2022-09-09T09:58:33;95453.06;;;16.73;100.00
43878;BME280;29815;48.184;11.268;2022-09-09T10:01:22;95456.91;;;16.72;100.00
43878;BME280;29815;48.184;11.268;2022-09-09T10:03:57;95454.84;;;16.77;100.00
43878;BME280;29815;48.184;11.268;2022-09-09T10:06:33;95450.59;;;16.85;100.00
43878;BME280;29815;48.184;11.268;2022-09-09T10:09:23;95454.59;;;16.87;100.00
43878;BME280;29815;48.184;11.268;2022-09-09T10:12:00;95452.38;;;16.89;100.00
43878;BME280;29815;48.184;11.268;2022-09-09T10:14:42;95454.97;;;16.95;100.00
43878;BME280;29815;48.184;11.268;2022-09-09T10:17:22;95444.44;;;17.02;100.00
43878;BME280;29815;48.184;11.268;2022-09-09T10:20:14;95446.38;;;17.10;100.00
43878;BME280;29815;48.184;11.268;2022-09-09T10:22:51;95444.97;;;17.12;100.00
43878;BME280;29815;48.184;11.268;2022-09-09T10:25:53;95441.81;;;17.19;100.00
43878;BME280;29815;48.184;11.268;2022-09-09T10:28:48;95437.34;;;17.23;100.00
43878;BME280;29815;48.184;11.268;2022-09-09T10:31:32;95443.91;;;17.22;100.00
43878;BME280;29815;48.184;11.268;2022-09-09T10:34:20;95442.78;;;17.23;100.00
43878;BME280;29815;48.184;11.268;2022-09-09T10:37:24;95445.16;;;17.24;100.00
43878;BME280;29815;48.184;11.268;2022-09-09T10:40:17;95441.81;;;17.27;100.00
43878;BME280;29815;48.184;11.268;2022-09-09T10:43:25;95438.28;;;17.27;100.00
43878;BME280;29815;48.184;11.268;2022-09-09T10:46:09;95430.31;;;17.31;100.00
43878;BME280;29815;48.184;11.268;2022-09-09T10:48:59;95438.28;;;17.27;100.00
43878;BME280;29815;48.184;11.268;2022-09-09T10:51:43;95441.69;;;17.33;100.00
43878;BME280;29815;48.184;11.268;2022-09-09T10:54:32;95446.81;;;17.34;100.00
43878;BME280;29815;48.184;11.268;2022-09-09T10:57:17;95439.97;;;17.45;100.00
43878;BME280;29815;48.184;11.268;2022-09-09T11:00:02;95440.78;;;17.54;100.00
43878;BME280;29815;48.184;11.268;2022-09-09T11:02:35;95449.50;;;17.65;100.00
43878;BME280;29815;48.184;11.268;2022-09-09T11:05:10;95450.28;;;17.66;100.00
43878;BME280;29815;48.184;11.268;2022-09-09T11:07:55;95448.53;;;17.70;100.00
43878;BME280;29815;48.184;11.268;2022-09-09T11:10:36;95451.25;;;17.78;100.00
43878;BME280;29815;48.184;11.268;2022-09-09T11:13:15;95445.19;;;17.90;100.00
43878;BME280;29815;48.184;11.268;2022-09-09T11:15:52;95436.41;;;18.02;100.00
43878;BME280;29815;48.184;11.268;2022-09-09T11:18:26;95429.84;;;18.11;100.00
43878;BME280;29815;48.184;11.268;2022-09-09T11:21:01;95428.88;;;18.24;100.00
43878;BME280;29815;48.184;11.268;2022-09-09T11:23:39;95424.69;;;18.36;100.00
43878;BME280;29815;48.184;11.268;2022-09-09T11:26:14;95437.50;;;18.44;100.00
43878;BME280;29815;48.184;11.268;2022-09-09T11:32:59;95437.19;;;18.80;100.00
43878;BME280;29815;48.184;11.268;2022-09-09T11:36:01;95436.63;;;18.95;100.00
43878;BME280;29815;48.184;11.268;2022-09-09T11:38:45;95427.78;;;19.07;100.00
43878;BME280;29815;48.184;11.268;2022-09-09T11:41:16;95431.63;;;19.06;100.00
43878;BME280;29815;48.184;11.268;2022-09-09T11:43:50;95430.13;;;19.17;100.00
43878;BME280;29815;48.184;11.268;2022-09-09T11:46:31;95427.84;;;19.27;100.00
43878;BME280;29815;48.184;11.268;2022-09-09T11:49:06;95429.56;;;19.41;100.00
43878;BME280;29815;48.184;11.268;2022-09-09T11:51:50;95430.81;;;19.43;100.00
43878;BME280;29815;48.184;11.268;2022-09-09T11:54:30;95432.63;;;19.39;100.00
43878;BME280;29815;48.184;11.268;2022-09-09T11:57:02;95434.22;;;19.40;100.00
43878;BME280;29815;48.184;11.268;2022-09-09T11:59:53;95437.31;;;19.30;100.00
43878;BME280;29815;48.184;11.268;2022-09-09T12:02:26;95430.56;;;19.36;100.00
43878;BME280;29815;48.184;11.268;2022-09-09T12:05:04;95431.34;;;19.37;100.00
43878;BME280;29815;48.184;11.268;2022-09-09T12:07:39;95435.84;;;19.41;100.00
43878;BME280;29815;48.184;11.268;2022-09-09T12:10:23;95427.84;;;19.27;100.00
43878;BME280;29815;48.184;11.268;2022-09-09T12:12:55;95424.09;;;19.11;100.00
43878;BME280;29815;48.184;11.268;2022-09-09T12:15:47;95431.31;;;19.07;100.00
43878;BME280;29815;48.184;11.268;2022-09-09T12:18:24;95432.44;;;19.06;100.00
43878;BME280;29815;48.184;11.268;2022-09-09T12:21:03;95420.09;;;19.00;100.00
43878;BME280;29815;48.184;11.268;2022-09-09T12:23:42;95419.16;;;18.96;100.00
43878;BME280;29815;48.184;11.268;2022-09-09T12:26:28;95421.56;;;18.98;100.00
43878;BME280;29815;48.184;11.268;2022-09-09T12:29:12;95426.03;;;19.02;100.00
43878;BME280;29815;48.184;11.268;2022-09-09T12:31:56;95422.81;;;19.00;100.00
43878;BME280;29815;48.184;11.268;2022-09-09T12:34:39;95419.16;;;18.96;100.00
43878;BME280;29815;48.184;11.268;2022-09-09T12:37:21;95416.75;;;18.94;100.00
43878;BME280;29815;48.184;11.268;2022-09-09T12:39:57;95409.22;;;18.91;100.00
43878;BME280;29815;48.184;11.268;2022-09-09T12:42:27;95413.53;;;18.92;100.00
43878;BME280;29815;48.184;11.268;2022-09-09T12:44:59;95410.31;;;18.99;100.00
43878;BME280;29815;48.184;11.268;2022-09-09T12:47:38;95411.91;;;19.00;100.00
43878;BME280;29815;48.184;11.268;2022-09-09T12:50:17;95406.97;;;18.93;100.00
43878;BME280;29815;48.184;11.268;2022-09-09T12:52:52;95404.22;;;18.93;100.00
43878;BME280;29815;48.184;11.268;2022-09-09T12:55:28;95398.19;;;18.79;100.00
43878;BME280;29815;48.184;11.268;2022-09-09T12:58:02;95397.72;;;18.77;100.00
43878;BME280;29815;48.184;11.268;2022-09-09T13:00:34;95398.84;;;18.76;100.00
43878;BME280;29815;48.184;11.268;2022-09-09T13:03:17;95398.03;;;18.76;100.00
43878;BME280;29815;48.184;11.268;2022-09-09T13:05:49;95396.28;;;18.80;100.00
43878;BME280;29815;48.184;11.268;2022-09-09T13:08:20;95390.03;;;18.79;100.00
43878;BME280;29815;48.184;11.268;2022-09-09T13:10:53;95389.38;;;18.82;100.00
43878;BME280;29815;48.184;11.268;2022-09-09T13:13:35;95384.66;;;18.91;100.00
43878;BME280;29815;48.184;11.268;2022-09-09T13:16:18;95373.72;;;19.09;100.00
43878;BME280;29815;48.184;11.268;2022-09-09T13:18:50;95366.91;;;19.15;100.00
43878;BME280;29815;48.184;11.268;2022-09-09T13:21:29;95368.47;;;19.24;100.00
43878;BME280;29815;48.184;11.268;2022-09-09T13:24:03;95360.25;;;19.33;100.00
43878;BME280;29815;48.184;11.268;2022-09-09T13:26:35;95360.78;;;19.77;100.00
43878;BME280;29815;48.184;11.268;2022-09-09T13:29:17;95353.00;;;20.08;100.00
43878;BME280;29815;48.184;11.268;2022-09-09T13:31:48;95353.53;;;20.22;100.00